Decoded Metar for DTTJ (DJERBA in TUNISIA) (IATA:DJE) | Meteo·Mobile Aviation Weather
aviador You're here:

DTTJ Decoded Metar

DJERBA in TUNISIA
Report Time2018-09-21 18:00:00
UTC Time2018-09-21 18:30:18
Flight Rules vfr VFR
Wind080° at 05 kt
W.Decomp.*RWY 09: 4.9 kt HW 1 kt LCW
W.Rank080° ranks 1
Current wind is below 080° avg. (8.7)
Visibility9999 m
Phenomena:N/A
Clouds:Few TCU 016 Hf
Expected CloudBase > 2,400 ft AGL from Temp-Dew spread
CeilingNone
Temp26°C (ISA +11)
Dew Point20°C (70% RH)
QNH1015 hPa
Density Alt1,529 ft
Elevation13 ft
Report Wrong Elevation
Raw Report
METAR DTTJ 211800Z 08005KT 9999 FEW016TCU 26/20 Q1015 NOSIG=

Extra information for DTTJ:More info

Metar Taf Metar & Taf Last 4 Metars F.Rules Stats Wind Profile Meteogram Temp Stats Airport Information Weather charts Add Link Nearby VenuesMetar ALERT Operation Metar Decoded Social comments